createdAt,value
2022-11-03T00:00:06.589Z,10.48
2022-11-03T00:02:39.275Z,10.49
2022-11-03T00:05:27.195Z,10.56
2022-11-03T00:07:54.656Z,10.56
2022-11-03T00:10:22.352Z,10.53
2022-11-03T00:12:49.738Z,10.63
2022-11-03T00:15:17.204Z,10.69
2022-11-03T00:17:46.534Z,10.76
2022-11-03T00:20:13.969Z,10.77
2022-11-03T00:22:41.370Z,10.80
2022-11-03T00:25:09.401Z,10.80
2022-11-03T00:27:36.964Z,10.77
2022-11-03T00:30:04.658Z,10.77
2022-11-03T00:32:32.377Z,10.82
2022-11-03T00:34:59.847Z,10.79
2022-11-03T00:37:27.319Z,10.80
2022-11-03T00:39:55.019Z,10.70
2022-11-03T00:42:22.670Z,10.73
2022-11-03T00:44:50.130Z,10.74
2022-11-03T00:47:21.655Z,10.66
2022-11-03T00:49:51.686Z,10.73
2022-11-03T00:52:19.423Z,10.74
2022-11-03T00:54:48.997Z,10.60
2022-11-03T00:57:20.429Z,10.72
2022-11-03T00:59:47.856Z,10.61
2022-11-03T01:02:15.365Z,10.58
2022-11-03T01:05:01.573Z,10.55
2022-11-03T01:07:29.092Z,10.46
2022-11-03T01:09:57.952Z,10.55
2022-11-03T01:12:25.403Z,10.51
2022-11-03T01:14:53.559Z,10.53
2022-11-03T01:17:26.619Z,10.40
2022-11-03T01:19:54.670Z,10.39
2022-11-03T01:22:23.553Z,10.45
2022-11-03T01:24:54.138Z,10.37
2022-11-03T01:27:24.963Z,10.35
2022-11-03T01:29:53.123Z,10.40
2022-11-03T01:32:20.558Z,10.42
2022-11-03T01:34:48.480Z,10.39
2022-11-03T01:37:15.966Z,10.38
2022-11-03T01:39:43.380Z,10.39
2022-11-03T01:42:12.869Z,10.42
2022-11-03T01:44:45.411Z,10.48
2022-11-03T01:47:28.420Z,10.46
2022-11-03T01:50:07.148Z,10.45
2022-11-03T01:52:39.380Z,10.41
2022-11-03T01:55:35.740Z,10.38
2022-11-03T01:58:22.198Z,10.37
2022-11-03T02:00:52.532Z,10.38
2022-11-03T02:03:21.225Z,10.35
2022-11-03T02:05:50.144Z,10.33
2022-11-03T02:08:36.882Z,10.19
2022-11-03T02:11:24.638Z,10.27
2022-11-03T02:13:52.465Z,10.26
2022-11-03T02:16:21.337Z,10.21
2022-11-03T02:18:49.783Z,10.13
2022-11-03T02:21:28.002Z,10.12
2022-11-03T02:24:09.215Z,10.09
2022-11-03T02:26:36.662Z,10.08
2022-11-03T02:29:04.381Z,10.06
2022-11-03T02:31:48.543Z,10.06
2022-11-03T02:34:24.209Z,10.05
2022-11-03T02:36:55.986Z,9.96
2022-11-03T02:39:40.777Z,9.87
2022-11-03T02:42:09.165Z,9.92
2022-11-03T02:44:37.225Z,9.89
2022-11-03T02:47:08.347Z,9.82
2022-11-03T02:52:37.468Z,9.59
2022-11-03T02:55:12.283Z,9.70
2022-11-03T02:57:46.322Z,9.63
2022-11-03T03:00:15.200Z,9.68
2022-11-03T03:02:56.255Z,9.66
2022-11-03T03:05:25.795Z,9.66
2022-11-03T03:07:57.584Z,9.68
2022-11-03T03:10:27.837Z,9.69
2022-11-03T03:12:57.948Z,9.64
2022-11-03T03:15:36.867Z,9.60
2022-11-03T03:18:16.327Z,9.60
2022-11-03T03:21:13.794Z,9.58
2022-11-03T03:23:49.798Z,9.55
2022-11-03T03:26:40.905Z,9.52
2022-11-03T03:29:15.095Z,9.49
2022-11-03T03:31:47.994Z,9.46
2022-11-03T03:34:33.999Z,9.53
2022-11-03T03:37:03.393Z,9.55
2022-11-03T03:39:34.579Z,9.54
2022-11-03T03:42:02.688Z,9.53
2022-11-03T03:44:30.903Z,9.50
2022-11-03T03:47:01.791Z,9.48
2022-11-03T03:49:29.274Z,9.50
2022-11-03T03:51:56.724Z,9.43
2022-11-03T03:54:24.457Z,9.52
2022-11-03T03:57:03.609Z,9.45
2022-11-03T03:59:31.597Z,9.26
2022-11-03T04:01:59.554Z,9.07
2022-11-03T04:04:27.356Z,8.99
2022-11-03T04:07:14.782Z,8.92
2022-11-03T04:09:43.048Z,8.82
2022-11-03T04:12:29.109Z,8.89
2022-11-03T04:15:15.487Z,8.95
2022-11-03T04:18:05.599Z,8.97
2022-11-03T04:20:52.211Z,9.01
2022-11-03T04:23:19.955Z,8.95
2022-11-03T04:25:53.113Z,9.05
2022-11-03T04:28:21.040Z,9.05
2022-11-03T04:30:48.876Z,8.83
2022-11-03T04:33:18.577Z,8.76
2022-11-03T04:35:47.096Z,8.70
2022-11-03T04:38:14.710Z,8.67
2022-11-03T04:40:45.661Z,8.72
2022-11-03T04:43:16.355Z,8.75
2022-11-03T04:45:45.669Z,8.51
2022-11-03T04:48:23.449Z,8.54
2022-11-03T04:50:57.792Z,8.53
2022-11-03T04:53:28.835Z,8.40
2022-11-03T04:55:56.537Z,8.37
2022-11-03T04:58:26.908Z,8.33
2022-11-03T05:00:57.673Z,8.36
2022-11-03T05:03:35.701Z,8.29
2022-11-03T05:06:20.286Z,8.28
2022-11-03T05:08:52.516Z,8.31
2022-11-03T05:11:32.915Z,8.32
2022-11-03T05:14:12.624Z,8.29
2022-11-03T05:16:40.241Z,8.05
2022-11-03T05:19:29.132Z,7.94
2022-11-03T05:21:59.095Z,7.97
2022-11-03T05:24:27.747Z,8.02
2022-11-03T05:26:56.366Z,8.00
2022-11-03T05:29:32.963Z,7.98
2022-11-03T05:32:00.999Z,7.89
2022-11-03T05:34:32.155Z,7.97
2022-11-03T05:37:26.138Z,8.00
2022-11-03T05:39:59.781Z,7.88
2022-11-03T05:42:36.794Z,7.72
2022-11-03T05:45:24.898Z,7.67
2022-11-03T05:47:54.636Z,7.54
2022-11-03T05:50:31.031Z,7.75
2022-11-03T05:53:26.854Z,7.81
2022-11-03T05:56:00.996Z,7.77
2022-11-03T05:58:35.665Z,7.66
2022-11-03T06:01:18.843Z,7.71
2022-11-03T06:03:47.178Z,8.26
2022-11-03T06:06:32.438Z,8.37
2022-11-03T06:09:09.909Z,8.60
2022-11-03T06:11:37.837Z,8.92
2022-11-03T06:14:24.031Z,9.36
2022-11-03T06:17:18.461Z,9.32
2022-11-03T06:19:48.201Z,9.37
2022-11-03T06:22:19.813Z,9.40
2022-11-03T06:24:47.559Z,9.57
2022-11-03T06:27:23.966Z,9.48
2022-11-03T06:30:25.724Z,9.18
2022-11-03T06:32:54.859Z,8.98
2022-11-03T06:35:22.890Z,9.06
2022-11-03T06:37:50.736Z,9.36
2022-11-03T06:40:18.181Z,9.36
2022-11-03T06:42:45.926Z,9.60
2022-11-03T06:45:21.885Z,9.22
2022-11-03T06:47:51.232Z,9.50
2022-11-03T06:50:44.645Z,9.73
2022-11-03T06:53:19.709Z,10.16
2022-11-03T06:55:48.794Z,9.96
2022-11-03T06:58:27.337Z,10.07
2022-11-03T07:01:02.821Z,9.78
2022-11-03T07:03:37.883Z,9.80
2022-11-03T07:06:27.256Z,9.81
2022-11-03T07:08:58.197Z,10.11
2022-11-03T07:11:30.494Z,9.79
2022-11-03T07:14:03.059Z,9.82
2022-11-03T07:16:57.711Z,9.86
2022-11-03T07:19:28.035Z,9.95
2022-11-03T07:22:01.859Z,10.08
2022-11-03T07:24:41.782Z,10.12
2022-11-03T07:27:29.278Z,10.33
2022-11-03T07:30:00.829Z,10.29
2022-11-03T07:32:31.547Z,10.24
2022-11-03T07:35:18.175Z,10.29
2022-11-03T07:37:47.680Z,10.36
2022-11-03T07:40:19.072Z,10.49
2022-11-03T07:42:46.643Z,10.68
2022-11-03T07:45:44.167Z,10.62
2022-11-03T07:48:18.712Z,11.00
2022-11-03T07:50:57.616Z,10.91
2022-11-03T07:53:36.128Z,10.90
2022-11-03T07:56:14.180Z,10.84
2022-11-03T07:58:42.969Z,10.86
2022-11-03T08:01:23.881Z,10.87
2022-11-03T08:03:52.112Z,10.86
2022-11-03T08:06:20.150Z,10.87
2022-11-03T08:08:47.817Z,10.89
2022-11-03T08:11:15.722Z,10.91
2022-11-03T08:13:43.356Z,10.96
2022-11-03T08:16:11.044Z,10.99
2022-11-03T08:18:38.817Z,11.07
2022-11-03T08:21:06.283Z,11.03
2022-11-03T08:23:34.041Z,11.07
2022-11-03T08:26:02.267Z,11.19
2022-11-03T08:28:29.840Z,11.23
2022-11-03T08:31:02.276Z,11.34
2022-11-03T08:33:32.260Z,11.37
2022-11-03T08:36:00.347Z,11.43
2022-11-03T08:38:28.363Z,11.49
2022-11-03T08:40:56.832Z,11.55
2022-11-03T08:43:25.028Z,11.66
2022-11-03T08:45:53.845Z,11.70
2022-11-03T08:48:27.321Z,11.83
2022-11-03T08:50:55.975Z,11.90
2022-11-03T08:53:28.071Z,12.06
2022-11-03T08:55:57.003Z,12.11
2022-11-03T08:58:25.269Z,12.21
2022-11-03T09:00:52.818Z,12.35
2022-11-03T09:03:20.643Z,12.55
2022-11-03T09:05:48.835Z,12.74
2022-11-03T09:11:05.052Z,13.01
2022-11-03T09:13:32.550Z,13.21
2022-11-03T09:16:00.089Z,13.39
2022-11-03T09:18:28.568Z,13.55
2022-11-03T09:20:56.535Z,13.68
2022-11-03T09:23:24.720Z,13.78
2022-11-03T09:25:53.044Z,13.85
2022-11-03T09:28:20.572Z,14.02
2022-11-03T09:30:48.129Z,14.05
2022-11-03T09:33:15.965Z,14.22
2022-11-03T09:35:43.600Z,14.20
2022-11-03T09:38:11.968Z,14.27
2022-11-03T09:40:39.955Z,14.29
2022-11-03T09:43:07.826Z,14.29
2022-11-03T09:45:35.820Z,14.30
2022-11-03T09:48:04.085Z,14.23
2022-11-03T09:50:32.289Z,14.32
2022-11-03T09:52:59.888Z,14.33
2022-11-03T09:55:27.793Z,14.32
2022-11-03T09:58:02.192Z,14.37
2022-11-03T10:00:32.375Z,14.40
2022-11-03T10:03:01.532Z,14.40
2022-11-03T10:05:30.899Z,14.41
2022-11-03T10:08:03.855Z,14.42
2022-11-03T10:10:32.548Z,14.43
2022-11-03T10:13:02.409Z,14.45
2022-11-03T10:15:35.833Z,14.47
2022-11-03T10:18:57.615Z,15.33
2022-11-03T10:21:29.071Z,15.33
2022-11-03T10:23:56.688Z,14.80
2022-11-03T10:26:24.228Z,14.75
2022-11-03T10:29:05.303Z,14.74
2022-11-03T10:31:37.827Z,14.74
2022-11-03T10:34:07.203Z,14.82
2022-11-03T10:36:35.049Z,14.82
2022-11-03T10:39:29.592Z,14.89
2022-11-03T10:41:58.766Z,15.06
2022-11-03T10:44:28.250Z,15.04
2022-11-03T10:47:00.643Z,15.09
2022-11-03T10:49:36.535Z,15.20
2022-11-03T10:52:20.556Z,15.20
2022-11-03T10:54:49.887Z,15.17
2022-11-03T10:57:17.709Z,15.18
2022-11-03T10:59:47.306Z,15.18
2022-11-03T11:02:23.446Z,15.21
2022-11-03T11:04:59.354Z,15.25
2022-11-03T11:07:31.325Z,15.25
2022-11-03T11:10:06.386Z,15.31
2022-11-03T11:12:42.690Z,15.23
2022-11-03T11:15:51.076Z,15.30
2022-11-03T11:18:52.113Z,15.36
2022-11-03T11:21:19.487Z,15.43
2022-11-03T11:23:48.715Z,15.49
2022-11-03T11:26:17.818Z,15.47
2022-11-03T11:29:10.359Z,15.44
2022-11-03T11:31:42.041Z,15.39
2022-11-03T11:34:10.362Z,15.41
2022-11-03T11:36:48.159Z,15.36
2022-11-03T11:39:24.860Z,15.19
2022-11-03T11:42:15.402Z,15.37
2022-11-03T11:44:42.952Z,15.38
2022-11-03T11:47:30.480Z,15.26
2022-11-03T11:50:07.226Z,15.28
2022-11-03T11:52:58.551Z,15.24
2022-11-03T11:55:30.384Z,15.17
2022-11-03T11:57:59.912Z,15.18
2022-11-03T12:00:30.583Z,15.11
2022-11-03T12:03:00.087Z,15.05
2022-11-03T12:05:32.494Z,15.00
2022-11-03T12:08:00.667Z,15.11
2022-11-03T12:10:31.371Z,14.96
2022-11-03T12:13:00.355Z,14.98
2022-11-03T12:15:52.603Z,14.88
2022-11-03T12:18:38.865Z,14.81
2022-11-03T12:21:16.329Z,14.82
2022-11-03T12:23:48.260Z,14.60
2022-11-03T12:26:45.383Z,14.64
2022-11-03T12:29:19.974Z,14.58
2022-11-03T12:31:50.334Z,14.67
2022-11-03T12:34:18.863Z,14.79
2022-11-03T12:36:54.741Z,14.59
2022-11-03T12:39:23.647Z,14.72
2022-11-03T12:41:51.457Z,14.67
2022-11-03T12:44:19.058Z,14.70
2022-11-03T12:46:47.119Z,14.71
2022-11-03T12:49:14.922Z,14.72
2022-11-03T12:51:42.625Z,14.67
2022-11-03T12:54:10.080Z,14.73
2022-11-03T12:56:37.893Z,14.74
2022-11-03T12:59:05.698Z,14.66
2022-11-03T13:01:33.403Z,14.85
2022-11-03T13:04:01.458Z,14.80
2022-11-03T13:06:29.269Z,14.87
2022-11-03T13:08:56.847Z,14.87
2022-11-03T13:11:43.517Z,14.83
2022-11-03T13:14:11.558Z,14.79
2022-11-03T13:16:39.458Z,14.74
2022-11-03T13:19:07.180Z,14.79
2022-11-03T13:21:34.930Z,14.78
2022-11-03T13:24:02.784Z,14.74
2022-11-03T13:26:30.329Z,14.71
2022-11-03T13:28:57.812Z,14.71
2022-11-03T13:31:25.732Z,14.68
2022-11-03T13:33:53.400Z,14.66
2022-11-03T13:36:21.049Z,14.66
2022-11-03T13:38:49.004Z,14.65
2022-11-03T13:41:16.801Z,14.64
2022-11-03T13:43:44.305Z,14.63
2022-11-03T13:46:12.979Z,14.58
2022-11-03T13:51:28.607Z,14.43
2022-11-03T13:59:31.860Z,14.43
2022-11-03T14:04:47.919Z,14.41
2022-11-03T14:07:15.470Z,14.40
2022-11-03T14:09:43.085Z,14.40
2022-11-03T14:12:29.559Z,14.38
2022-11-03T14:15:10.978Z,14.36
2022-11-03T14:17:40.450Z,14.25
2022-11-03T14:20:11.509Z,14.33
2022-11-03T14:22:40.476Z,14.32
2022-11-03T14:25:08.467Z,14.26
2022-11-03T14:27:36.452Z,14.31
2022-11-03T14:30:05.290Z,14.21
2022-11-03T14:32:33.979Z,14.28
2022-11-03T14:35:01.811Z,14.27
2022-11-03T14:37:29.765Z,14.25
2022-11-03T14:39:57.529Z,14.23
2022-11-03T14:42:25.059Z,14.20
2022-11-03T14:47:25.785Z,14.12
2022-11-03T14:49:53.635Z,14.06
2022-11-03T14:52:21.186Z,14.02
2022-11-03T14:54:48.769Z,13.96
2022-11-03T14:57:17.117Z,13.91
2022-11-03T14:59:46.817Z,13.88
2022-11-03T15:02:18.492Z,13.85
2022-11-03T15:04:46.161Z,13.84
2022-11-03T15:07:13.718Z,13.82
2022-11-03T15:09:41.468Z,13.78
2022-11-03T15:12:08.978Z,13.74
2022-11-03T15:14:36.528Z,13.70
2022-11-03T15:17:04.406Z,13.65
2022-11-03T15:19:36.966Z,13.60
2022-11-03T15:22:17.045Z,13.54
2022-11-03T15:27:39.610Z,13.42
2022-11-03T15:30:08.053Z,13.36
2022-11-03T15:32:40.864Z,13.32
2022-11-03T15:35:21.530Z,13.27
2022-11-03T15:37:58.830Z,13.17
2022-11-03T15:40:26.694Z,12.92
2022-11-03T15:42:56.827Z,12.76
2022-11-03T15:45:28.157Z,12.61
2022-11-03T15:48:07.010Z,12.55
2022-11-03T15:50:34.914Z,12.53
2022-11-03T15:53:02.360Z,12.53
2022-11-03T15:55:29.814Z,12.45
2022-11-03T15:57:57.634Z,12.38
2022-11-03T16:00:25.247Z,12.31
2022-11-03T16:02:53.108Z,12.26
2022-11-03T16:05:24.954Z,12.19
2022-11-03T16:07:53.152Z,12.04
2022-11-03T16:10:20.718Z,12.02
2022-11-03T16:12:48.411Z,11.87
2022-11-03T16:15:16.237Z,11.70
2022-11-03T16:17:45.663Z,11.64
2022-11-03T16:20:13.627Z,11.61
2022-11-03T16:22:41.482Z,11.48
2022-11-03T16:25:14.211Z,11.55
2022-11-03T16:27:43.564Z,11.43
2022-11-03T16:30:11.729Z,11.37
2022-11-03T16:32:39.487Z,11.38
2022-11-03T16:35:07.713Z,11.24
2022-11-03T16:37:35.533Z,11.20
2022-11-03T16:40:04.454Z,11.09
2022-11-03T16:42:38.373Z,11.02
2022-11-03T16:45:27.630Z,10.96
2022-11-03T16:47:56.086Z,10.92
2022-11-03T16:50:23.697Z,10.97
2022-11-03T16:52:51.383Z,10.99
2022-11-03T16:55:19.921Z,11.00
2022-11-03T16:57:47.470Z,10.91
2022-11-03T17:00:20.104Z,10.94
2022-11-03T17:02:48.292Z,10.98
2022-11-03T17:05:17.717Z,10.98
2022-11-03T17:07:50.217Z,10.98
2022-11-03T17:10:22.370Z,10.95
2022-11-03T17:12:50.600Z,10.89
2022-11-03T17:15:18.324Z,10.80
2022-11-03T17:17:46.414Z,10.76
2022-11-03T17:20:14.279Z,10.84
2022-11-03T17:22:41.820Z,10.82
2022-11-03T17:25:11.741Z,10.80
2022-11-03T17:27:51.989Z,10.68
2022-11-03T17:30:25.044Z,10.73
2022-11-03T17:32:58.564Z,10.68
2022-11-03T17:35:39.547Z,10.63
2022-11-03T17:38:13.968Z,10.49
2022-11-03T17:40:43.888Z,10.37
2022-11-03T17:43:22.622Z,10.28
2022-11-03T17:45:51.117Z,10.19
2022-11-03T17:48:18.690Z,10.25
2022-11-03T17:50:48.758Z,10.14
2022-11-03T17:53:20.155Z,10.22
2022-11-03T17:56:02.920Z,10.18
2022-11-03T17:58:44.848Z,10.10
2022-11-03T18:01:16.722Z,10.11
2022-11-03T18:03:44.685Z,10.03
2022-11-03T18:06:16.804Z,10.12
2022-11-03T18:08:45.707Z,10.12
2022-11-03T18:11:35.505Z,10.02
2022-11-03T18:14:03.695Z,10.04
2022-11-03T18:16:31.738Z,10.02
2022-11-03T18:18:59.461Z,9.98
2022-11-03T18:21:28.708Z,9.97
2022-11-03T18:23:56.301Z,9.91
2022-11-03T18:26:25.859Z,9.90
2022-11-03T18:28:54.641Z,9.88
2022-11-03T18:31:34.122Z,9.85
2022-11-03T18:34:12.440Z,9.80
2022-11-03T18:36:40.295Z,9.76
2022-11-03T18:39:11.744Z,9.61
2022-11-03T18:41:40.449Z,9.67
2022-11-03T18:44:24.715Z,9.61
2022-11-03T18:46:52.929Z,9.55
2022-11-03T18:49:21.613Z,9.50
2022-11-03T18:52:02.482Z,9.36
2022-11-03T18:54:32.196Z,9.44
2022-11-03T18:57:00.288Z,9.40
2022-11-03T18:59:35.024Z,9.34
2022-11-03T19:02:06.780Z,9.33
2022-11-03T19:04:34.664Z,9.25
2022-11-03T19:07:03.800Z,9.23
2022-11-03T19:09:32.980Z,9.21
2022-11-03T19:12:01.265Z,9.21
2022-11-03T19:14:31.946Z,9.19
2022-11-03T19:17:21.771Z,9.10
2022-11-03T19:19:49.318Z,9.09
2022-11-03T19:22:20.106Z,9.14
2022-11-03T19:24:48.005Z,9.11
2022-11-03T19:27:22.881Z,9.08
2022-11-03T19:29:52.849Z,9.06
2022-11-03T19:32:26.929Z,9.02
2022-11-03T19:35:04.148Z,9.01
2022-11-03T19:40:06.874Z,9.00
2022-11-03T19:40:20.809Z,8.99
2022-11-03T19:42:48.876Z,8.96
2022-11-03T19:45:18.380Z,8.85
2022-11-03T19:50:48.523Z,8.84
2022-11-03T19:53:20.675Z,8.81
2022-11-03T19:55:48.495Z,8.81
2022-11-03T19:58:20.674Z,8.83
2022-11-03T20:00:49.399Z,8.81
2022-11-03T20:03:17.893Z,8.72
2022-11-03T20:05:49.597Z,8.79
2022-11-03T20:08:20.314Z,8.68
2022-11-03T20:10:49.433Z,8.76
2022-11-03T20:13:20.239Z,8.77
2022-11-03T20:15:48.449Z,8.76
2022-11-03T20:18:16.527Z,8.68
2022-11-03T20:20:48.148Z,8.75
2022-11-03T20:23:35.263Z,8.65
2022-11-03T20:26:03.575Z,8.64
2022-11-03T20:28:32.440Z,8.73
2022-11-03T20:31:02.143Z,8.69
2022-11-03T20:33:30.507Z,8.68
2022-11-03T20:35:58.854Z,8.63
2022-11-03T20:38:26.905Z,8.61
2022-11-03T20:40:58.836Z,8.56
2022-11-03T20:43:31.753Z,8.56
2022-11-03T20:46:00.446Z,8.53
2022-11-03T20:48:31.397Z,8.53
2022-11-03T20:50:59.210Z,8.52
2022-11-03T20:53:26.811Z,8.51
2022-11-03T20:55:54.696Z,8.50
2022-11-03T20:58:22.242Z,8.49
2022-11-03T21:00:49.980Z,8.48
2022-11-03T21:03:37.701Z,8.43
2022-11-03T21:06:11.027Z,8.36
2022-11-03T21:08:38.993Z,8.40
2022-11-03T21:11:27.665Z,8.38
2022-11-03T21:13:58.149Z,8.36
2022-11-03T21:16:45.977Z,8.34
2022-11-03T21:19:40.094Z,8.28
2022-11-03T21:22:50.383Z,8.29
2022-11-03T21:25:11.936Z,8.27
2022-11-03T21:27:42.164Z,8.26
2022-11-03T21:30:14.522Z,8.25
2022-11-03T21:32:42.122Z,8.23
2022-11-03T21:35:14.666Z,8.21
2022-11-03T21:37:42.342Z,8.20
2022-11-03T21:40:12.301Z,8.15
2022-11-03T21:43:00.039Z,8.13
2022-11-03T21:45:27.905Z,8.13
2022-11-03T21:48:14.917Z,8.12
2022-11-03T21:50:43.427Z,8.10
2022-11-03T21:53:11.616Z,7.78
2022-11-03T21:55:39.459Z,7.67
2022-11-03T21:58:07.549Z,7.70
2022-11-03T22:00:35.181Z,7.73
2022-11-03T22:03:02.889Z,7.81
2022-11-03T22:05:30.356Z,7.83
2022-11-03T22:07:57.908Z,7.78
2022-11-03T22:10:26.096Z,7.80
2022-11-03T22:12:53.628Z,7.82
2022-11-03T22:15:39.764Z,7.79
2022-11-03T22:18:08.157Z,7.91
2022-11-03T22:20:54.875Z,7.92
2022-11-03T22:23:41.429Z,7.82
2022-11-03T22:26:32.726Z,7.85
2022-11-03T22:29:19.238Z,7.88
2022-11-03T22:31:46.985Z,7.95
2022-11-03T22:34:33.647Z,7.98
2022-11-03T22:37:01.066Z,8.02
2022-11-03T22:39:47.993Z,8.05
2022-11-03T22:42:33.887Z,8.10
2022-11-03T22:45:20.063Z,8.10
2022-11-03T22:47:47.613Z,8.11
2022-11-03T22:50:15.499Z,8.07
2022-11-03T22:52:43.364Z,8.07
2022-11-03T22:55:10.857Z,8.06
2022-11-03T22:57:38.617Z,8.12
2022-11-03T23:00:06.529Z,8.04
2022-11-03T23:02:34.157Z,8.13
2022-11-03T23:05:01.992Z,8.19
2022-11-03T23:07:32.233Z,8.18
2022-11-03T23:10:05.109Z,8.15
2022-11-03T23:12:33.070Z,8.04
2022-11-03T23:15:19.210Z,8.01
2022-11-03T23:18:05.655Z,7.90
2022-11-03T23:20:51.349Z,8.00
2022-11-03T23:23:37.816Z,8.04
2022-11-03T23:26:08.429Z,8.04
2022-11-03T23:28:36.188Z,8.00
2022-11-03T23:31:03.884Z,8.08
2022-11-03T23:33:31.719Z,8.10
2022-11-03T23:36:04.533Z,8.12
2022-11-03T23:38:36.384Z,8.07
2022-11-03T23:41:06.145Z,8.09
2022-11-03T23:43:34.246Z,8.13
2022-11-03T23:46:20.331Z,8.17
2022-11-03T23:48:48.570Z,8.22
2022-11-03T23:51:18.361Z,8.23
2022-11-03T23:53:46.955Z,8.23
2022-11-03T23:56:35.674Z,8.24
2022-11-03T23:59:04.341Z,8.22
